createdAt,value
2022-12-23T00:01:02.401Z,6.36
2022-12-23T00:03:30.191Z,6.30
2022-12-23T00:05:58.136Z,6.40
2022-12-23T00:08:25.481Z,6.31
2022-12-23T00:10:53.708Z,6.37
2022-12-23T00:13:52.641Z,6.47
2022-12-23T00:16:19.610Z,6.49
2022-12-23T00:18:46.464Z,6.56
2022-12-23T00:21:14.447Z,6.55
2022-12-23T00:23:42.505Z,6.57
2022-12-23T00:26:20.408Z,6.63
2022-12-23T00:28:47.404Z,6.66
2022-12-23T00:31:14.771Z,6.66
2022-12-23T00:33:45.828Z,6.71
2022-12-23T00:36:12.748Z,6.73
2022-12-23T00:38:58.324Z,6.70
2022-12-23T00:41:44.278Z,6.71
2022-12-23T00:44:11.046Z,6.75
2022-12-23T00:46:37.945Z,6.77
2022-12-23T00:49:23.589Z,6.70
2022-12-23T00:51:50.482Z,6.76
2022-12-23T00:54:17.599Z,6.79
2022-12-23T00:56:44.425Z,6.71
2022-12-23T00:59:11.226Z,6.69
2022-12-23T01:01:56.764Z,6.61
2022-12-23T01:04:42.279Z,6.64
2022-12-23T01:07:09.106Z,6.61
2022-12-23T01:09:36.126Z,6.60
2022-12-23T01:12:03.051Z,6.61
2022-12-23T01:14:30.115Z,6.58
2022-12-23T01:16:57.023Z,6.62
2022-12-23T01:19:24.105Z,6.65
2022-12-23T01:21:50.995Z,6.64
2022-12-23T01:24:17.790Z,6.66
2022-12-23T01:26:44.573Z,6.66
2022-12-23T01:29:11.365Z,6.65
2022-12-23T01:31:38.261Z,6.67
2022-12-23T01:34:05.273Z,6.72
2022-12-23T01:36:32.116Z,6.76
2022-12-23T01:38:58.875Z,6.79
2022-12-23T01:41:45.613Z,6.83
2022-12-23T01:44:31.200Z,6.87
2022-12-23T01:46:58.040Z,6.92
2022-12-23T01:49:24.809Z,6.97
2022-12-23T01:51:51.942Z,6.95
2022-12-23T01:54:18.801Z,6.99
2022-12-23T01:56:46.268Z,6.95
2022-12-23T01:59:34.173Z,6.95
2022-12-23T02:02:20.122Z,6.95
2022-12-23T02:04:48.398Z,6.94
2022-12-23T02:07:34.569Z,6.87
2022-12-23T02:10:01.623Z,6.90
2022-12-23T02:12:37.472Z,6.92
2022-12-23T02:15:22.889Z,6.91
2022-12-23T02:18:08.279Z,6.87
2022-12-23T02:20:44.612Z,6.87
2022-12-23T02:23:40.777Z,6.80
2022-12-23T02:26:26.350Z,6.84
2022-12-23T02:29:11.638Z,6.86
2022-12-23T02:31:47.336Z,6.80
2022-12-23T02:34:34.713Z,6.86
2022-12-23T02:37:07.432Z,6.87
2022-12-23T02:39:34.544Z,6.85
2022-12-23T02:42:04.486Z,6.85
2022-12-23T02:44:40.418Z,6.84
2022-12-23T02:47:11.417Z,6.81
2022-12-23T02:49:41.618Z,6.82
2022-12-23T02:52:12.526Z,6.81
2022-12-23T02:54:42.116Z,6.71
2022-12-23T02:57:11.712Z,6.69
2022-12-23T02:59:44.642Z,6.68
2022-12-23T03:02:11.871Z,6.67
2022-12-23T03:04:42.159Z,6.62
2022-12-23T03:07:18.730Z,6.56
2022-12-23T03:09:58.666Z,6.52
2022-12-23T03:12:31.572Z,6.47
2022-12-23T03:15:12.731Z,6.45
2022-12-23T03:17:54.858Z,6.49
2022-12-23T03:20:28.474Z,6.48
2022-12-23T03:23:04.372Z,6.49
2022-12-23T03:25:35.925Z,6.49
2022-12-23T03:28:15.987Z,6.44
2022-12-23T03:30:46.332Z,6.45
2022-12-23T03:33:33.116Z,6.48
2022-12-23T03:36:02.317Z,6.50
2022-12-23T03:38:30.532Z,6.50
2022-12-23T03:41:04.689Z,6.51
2022-12-23T03:43:35.951Z,6.53
2022-12-23T03:46:10.654Z,6.49
2022-12-23T03:48:43.875Z,6.47
2022-12-23T03:51:15.614Z,6.42
2022-12-23T03:53:45.059Z,6.40
2022-12-23T03:56:17.231Z,6.31
2022-12-23T03:58:59.025Z,6.37
2022-12-23T04:01:31.429Z,6.34
2022-12-23T04:04:03.638Z,6.32
2022-12-23T04:06:33.532Z,6.30
2022-12-23T04:09:02.069Z,6.31
2022-12-23T04:11:29.390Z,6.32
2022-12-23T04:13:56.187Z,6.29
2022-12-23T04:16:23.186Z,6.33
2022-12-23T04:18:50.051Z,6.33
2022-12-23T04:21:16.904Z,6.33
2022-12-23T04:23:43.750Z,6.33
2022-12-23T04:26:10.553Z,6.32
2022-12-23T04:28:37.338Z,6.30
2022-12-23T04:31:04.267Z,6.33
2022-12-23T04:33:31.117Z,6.32
2022-12-23T04:35:59.339Z,6.29
2022-12-23T04:38:26.220Z,6.31
2022-12-23T04:40:53.321Z,6.35
2022-12-23T04:43:20.070Z,6.36
2022-12-23T04:45:49.892Z,6.38
2022-12-23T04:48:16.767Z,6.39
2022-12-23T04:50:43.653Z,6.38
2022-12-23T04:53:10.463Z,6.41
2022-12-23T04:55:37.325Z,6.43
2022-12-23T04:58:04.115Z,6.41
2022-12-23T05:00:35.568Z,6.30
2022-12-23T05:03:06.288Z,6.25
2022-12-23T05:05:33.194Z,6.34
2022-12-23T05:08:06.209Z,6.38
2022-12-23T05:10:32.993Z,6.43
2022-12-23T05:12:59.906Z,6.47
2022-12-23T05:15:26.863Z,6.51
2022-12-23T05:17:54.009Z,6.57
2022-12-23T05:20:20.820Z,6.59
2022-12-23T05:22:47.963Z,6.61
2022-12-23T05:25:15.012Z,6.69
2022-12-23T05:27:42.144Z,6.72
2022-12-23T05:30:09.224Z,6.71
2022-12-23T05:32:39.316Z,6.74
2022-12-23T05:35:06.592Z,6.69
2022-12-23T05:37:33.388Z,6.73
2022-12-23T05:40:00.376Z,6.75
2022-12-23T05:42:27.495Z,6.73
2022-12-23T05:44:54.324Z,6.67
2022-12-23T05:47:21.174Z,6.59
2022-12-23T05:49:48.317Z,6.58
2022-12-23T05:52:15.142Z,6.57
2022-12-23T05:54:41.989Z,6.53
2022-12-23T05:57:08.808Z,6.43
2022-12-23T05:59:35.746Z,6.45
2022-12-23T06:02:02.625Z,6.44
2022-12-23T06:04:29.761Z,6.46
2022-12-23T06:06:56.643Z,6.48
2022-12-23T06:09:23.465Z,6.43
2022-12-23T06:11:50.367Z,6.37
2022-12-23T06:14:17.239Z,6.32
2022-12-23T06:16:44.192Z,6.35
2022-12-23T06:19:11.110Z,6.31
2022-12-23T06:21:37.943Z,6.30
2022-12-23T06:24:04.968Z,6.30
2022-12-23T06:26:31.965Z,6.30
2022-12-23T06:28:58.793Z,6.35
2022-12-23T06:31:25.691Z,6.35
2022-12-23T06:33:52.485Z,6.39
2022-12-23T06:36:19.294Z,6.41
2022-12-23T06:38:46.035Z,6.48
2022-12-23T06:41:12.938Z,6.50
2022-12-23T06:43:39.717Z,6.48
2022-12-23T06:46:06.596Z,6.51
2022-12-23T06:48:33.679Z,6.59
2022-12-23T06:51:00.531Z,6.60
2022-12-23T06:53:27.335Z,6.63
2022-12-23T06:56:01.051Z,6.65
2022-12-23T06:58:27.826Z,6.66
2022-12-23T07:00:54.681Z,6.67
2022-12-23T07:03:21.705Z,6.67
2022-12-23T07:05:49.206Z,6.73
2022-12-23T07:08:16.222Z,6.72
2022-12-23T07:10:43.107Z,6.72
2022-12-23T07:13:10.016Z,6.74
2022-12-23T07:15:37.520Z,6.78
2022-12-23T07:18:04.802Z,6.83
2022-12-23T07:20:31.621Z,6.81
2022-12-23T07:22:58.831Z,6.76
2022-12-23T07:25:25.638Z,6.69
2022-12-23T07:27:55.712Z,6.69
2022-12-23T07:30:23.720Z,6.69
2022-12-23T07:32:51.171Z,6.69
2022-12-23T07:35:18.088Z,6.65
2022-12-23T07:37:44.966Z,6.59
2022-12-23T07:40:12.263Z,6.70
2022-12-23T07:42:47.112Z,6.71
2022-12-23T07:45:14.195Z,6.73
2022-12-23T07:47:41.217Z,6.65
2022-12-23T07:50:08.571Z,6.73
2022-12-23T07:52:35.398Z,6.73
2022-12-23T07:55:02.297Z,6.69
2022-12-23T07:57:29.454Z,6.67
2022-12-23T07:59:56.292Z,6.66
2022-12-23T08:02:25.486Z,6.67
2022-12-23T08:04:52.897Z,6.69
2022-12-23T08:07:19.751Z,6.63
2022-12-23T08:09:46.534Z,6.57
2022-12-23T08:12:13.630Z,6.53
2022-12-23T08:14:40.436Z,6.55
2022-12-23T08:17:07.248Z,6.52
2022-12-23T08:19:34.197Z,6.48
2022-12-23T08:22:01.055Z,6.38
2022-12-23T08:24:28.193Z,6.37
2022-12-23T08:26:55.034Z,6.31
2022-12-23T08:29:21.852Z,6.28
2022-12-23T08:31:50.335Z,6.31
2022-12-23T08:34:19.358Z,6.30
2022-12-23T08:36:46.494Z,6.43
2022-12-23T08:39:13.529Z,6.43
2022-12-23T08:41:42.082Z,6.51
2022-12-23T08:44:09.375Z,6.57
2022-12-23T08:46:36.847Z,6.62
2022-12-23T08:49:04.061Z,6.62
2022-12-23T08:51:30.993Z,6.58
2022-12-23T08:54:00.981Z,6.58
2022-12-23T08:56:32.929Z,6.58
2022-12-23T08:58:59.819Z,6.64
2022-12-23T09:01:28.372Z,6.65
2022-12-23T09:03:55.587Z,6.70
2022-12-23T09:06:28.539Z,6.76
2022-12-23T09:08:57.039Z,6.78
2022-12-23T09:11:27.152Z,6.70
2022-12-23T09:13:54.192Z,6.73
2022-12-23T09:16:21.679Z,6.73
2022-12-23T09:18:49.081Z,6.76
2022-12-23T09:21:18.566Z,6.84
2022-12-23T09:23:48.847Z,6.79
2022-12-23T09:26:23.229Z,6.84
2022-12-23T09:28:50.098Z,6.84
2022-12-23T09:31:17.075Z,6.87
2022-12-23T09:33:46.201Z,6.89
2022-12-23T09:36:13.016Z,6.91
2022-12-23T09:38:40.230Z,6.91
2022-12-23T09:41:21.191Z,6.91
2022-12-23T09:43:51.646Z,6.96
2022-12-23T09:46:20.391Z,6.92
2022-12-23T09:49:07.667Z,6.92
2022-12-23T09:51:34.842Z,6.98
2022-12-23T09:54:11.985Z,6.92
2022-12-23T09:56:54.310Z,6.94
2022-12-23T09:59:36.592Z,6.98
2022-12-23T10:02:21.952Z,6.97
2022-12-23T10:04:55.129Z,6.92
2022-12-23T10:07:33.813Z,6.96
2022-12-23T10:10:06.386Z,7.09
2022-12-23T10:12:40.305Z,7.02
2022-12-23T10:15:30.444Z,6.80
2022-12-23T10:17:59.154Z,6.97
2022-12-23T10:20:35.085Z,7.05
2022-12-23T10:23:02.039Z,7.09
2022-12-23T10:25:33.351Z,7.02
2022-12-23T10:28:00.218Z,7.12
2022-12-23T10:33:23.430Z,7.26
2022-12-23T10:36:03.428Z,7.24
2022-12-23T10:38:48.974Z,7.24
2022-12-23T10:41:34.836Z,7.19
2022-12-23T10:44:16.931Z,7.18
2022-12-23T10:47:00.182Z,7.18
2022-12-23T10:49:36.074Z,7.23
2022-12-23T10:52:09.895Z,7.22
2022-12-23T10:54:37.076Z,7.27
2022-12-23T10:57:05.324Z,7.20
2022-12-23T10:59:32.760Z,7.16
2022-12-23T11:02:02.823Z,7.19
2022-12-23T11:04:39.366Z,7.09
2022-12-23T11:07:43.027Z,7.04
2022-12-23T11:09:58.748Z,7.02
2022-12-23T11:12:40.539Z,6.94
2022-12-23T11:15:28.071Z,6.88
2022-12-23T11:18:00.763Z,7.03
2022-12-23T11:20:27.586Z,7.11
2022-12-23T11:22:56.384Z,7.12
2022-12-23T11:25:29.320Z,7.15
2022-12-23T11:28:16.391Z,7.16
2022-12-23T11:30:50.294Z,7.13
2022-12-23T11:33:28.120Z,7.10
2022-12-23T11:36:03.169Z,7.05
2022-12-23T11:38:30.127Z,7.09
2022-12-23T11:40:57.015Z,7.14
2022-12-23T11:43:24.501Z,7.24
2022-12-23T11:46:11.457Z,7.31
2022-12-23T11:48:38.313Z,7.34
2022-12-23T11:51:05.220Z,7.33
2022-12-23T11:53:32.375Z,7.33
2022-12-23T11:56:01.102Z,7.39
2022-12-23T11:58:28.922Z,7.48
2022-12-23T12:00:57.429Z,7.49
2022-12-23T12:03:29.801Z,7.52
2022-12-23T12:06:01.308Z,7.56
2022-12-23T12:08:33.009Z,7.54
2022-12-23T12:11:02.696Z,7.56
2022-12-23T12:13:31.146Z,7.56
2022-12-23T12:15:58.059Z,7.61
2022-12-23T12:18:26.131Z,7.62
2022-12-23T12:20:55.294Z,7.66
2022-12-23T12:23:40.770Z,7.62
2022-12-23T12:26:13.376Z,7.69
2022-12-23T12:28:42.189Z,7.72
2022-12-23T12:31:20.447Z,7.78
2022-12-23T12:33:54.254Z,7.79
2022-12-23T12:36:27.473Z,7.76
2022-12-23T12:38:55.327Z,7.88
2022-12-23T12:41:24.811Z,7.96
2022-12-23T12:43:57.810Z,8.00
2022-12-23T12:46:28.974Z,8.05
2022-12-23T12:48:59.832Z,8.17
2022-12-23T12:51:26.564Z,8.14
2022-12-23T12:54:15.872Z,8.19
2022-12-23T12:56:48.796Z,8.14
2022-12-23T12:59:19.909Z,8.12
2022-12-23T13:02:05.375Z,8.11
2022-12-23T13:04:32.216Z,8.07
2022-12-23T13:06:59.057Z,8.08
2022-12-23T13:09:44.284Z,8.16
2022-12-23T13:12:11.041Z,8.14
2022-12-23T13:14:50.795Z,8.08
2022-12-23T13:17:26.632Z,8.11
2022-12-23T13:20:13.077Z,8.02
2022-12-23T13:22:40.080Z,7.98
2022-12-23T13:25:22.712Z,7.98
2022-12-23T13:28:08.178Z,7.95
2022-12-23T13:30:39.168Z,7.90
2022-12-23T13:33:15.541Z,7.86
2022-12-23T13:36:04.942Z,7.79
2022-12-23T13:38:55.636Z,7.72
2022-12-23T13:41:25.299Z,7.56
2022-12-23T13:44:00.267Z,7.67
2022-12-23T13:46:35.724Z,7.73
2022-12-23T13:49:12.159Z,7.67
2022-12-23T13:51:57.862Z,7.71
2022-12-23T13:54:24.676Z,7.70
2022-12-23T13:57:10.232Z,7.70
2022-12-23T13:59:39.206Z,7.74
2022-12-23T14:02:25.983Z,7.65
2022-12-23T14:04:55.584Z,7.66
2022-12-23T14:07:23.072Z,7.71
2022-12-23T14:10:09.029Z,7.68
2022-12-23T14:12:38.253Z,7.72
2022-12-23T14:15:25.286Z,7.70
2022-12-23T14:18:07.256Z,7.75
2022-12-23T14:20:43.160Z,7.77
2022-12-23T14:23:30.477Z,7.80
2022-12-23T14:26:15.015Z,7.83
2022-12-23T14:28:42.133Z,7.86
2022-12-23T14:31:27.590Z,7.88
2022-12-23T14:34:02.390Z,7.88
2022-12-23T14:36:29.367Z,7.83
2022-12-23T14:39:11.524Z,7.82
2022-12-23T14:41:50.479Z,7.81
2022-12-23T14:44:18.742Z,7.82
2022-12-23T14:46:45.571Z,7.82
2022-12-23T14:52:19.444Z,7.83
2022-12-23T14:55:00.361Z,7.78
2022-12-23T14:57:34.064Z,7.76
2022-12-23T15:00:02.691Z,7.77
2022-12-23T15:02:32.426Z,7.69
2022-12-23T15:05:00.124Z,7.68
2022-12-23T15:07:42.105Z,7.72
2022-12-23T15:10:15.717Z,7.74
2022-12-23T15:12:43.775Z,7.71
2022-12-23T15:15:15.044Z,7.69
2022-12-23T15:17:42.322Z,7.68
2022-12-23T15:20:14.994Z,7.69
2022-12-23T15:22:43.163Z,7.69
2022-12-23T15:25:26.912Z,7.60
2022-12-23T15:28:00.800Z,7.58
2022-12-23T15:30:29.722Z,7.57
2022-12-23T15:32:58.594Z,7.59
2022-12-23T15:35:29.397Z,7.61
2022-12-23T15:37:56.868Z,7.62
2022-12-23T15:40:28.968Z,7.66
2022-12-23T15:42:56.375Z,7.65
2022-12-23T15:45:23.332Z,7.63
2022-12-23T15:47:50.272Z,7.66
2022-12-23T15:50:17.754Z,7.64
2022-12-23T15:52:46.189Z,7.59
2022-12-23T15:55:14.851Z,7.59
2022-12-23T15:57:49.818Z,7.59
2022-12-23T16:00:27.647Z,7.57
2022-12-23T16:03:01.643Z,7.57
2022-12-23T16:05:34.190Z,7.58
2022-12-23T16:08:13.354Z,7.58
2022-12-23T16:10:40.404Z,7.56
2022-12-23T16:13:18.597Z,7.53
2022-12-23T16:15:46.377Z,7.56
2022-12-23T16:18:20.186Z,7.55
2022-12-23T16:20:48.793Z,7.56
2022-12-23T16:23:16.554Z,7.44
2022-12-23T16:25:50.468Z,7.41
2022-12-23T16:28:23.109Z,7.42
2022-12-23T16:30:52.778Z,7.40
2022-12-23T16:33:38.229Z,7.43
2022-12-23T16:36:22.257Z,7.43
2022-12-23T16:38:49.992Z,7.46
2022-12-23T16:41:17.444Z,7.45
2022-12-23T16:43:52.036Z,7.48
2022-12-23T16:46:20.746Z,7.45
2022-12-23T16:49:00.738Z,7.42
2022-12-23T16:51:28.695Z,7.38
2022-12-23T16:53:56.706Z,7.34
2022-12-23T16:56:29.346Z,7.33
2022-12-23T16:58:56.133Z,7.27
2022-12-23T17:01:24.541Z,7.30
2022-12-23T17:03:52.007Z,7.21
2022-12-23T17:06:19.710Z,7.18
2022-12-23T17:08:53.223Z,7.22
2022-12-23T17:11:24.144Z,7.18
2022-12-23T17:13:51.124Z,7.17
2022-12-23T17:16:21.893Z,7.15
2022-12-23T17:18:49.880Z,7.14
2022-12-23T17:21:19.505Z,7.11
2022-12-23T17:23:46.359Z,7.08
2022-12-23T17:26:13.166Z,7.05
2022-12-23T17:28:40.066Z,7.00
2022-12-23T17:31:18.138Z,6.98
2022-12-23T17:33:47.754Z,6.93
2022-12-23T17:36:14.907Z,6.83
2022-12-23T17:38:42.153Z,6.76
2022-12-23T17:41:15.254Z,6.72
2022-12-23T17:43:42.187Z,6.68
2022-12-23T17:46:13.377Z,6.64
2022-12-23T17:48:41.290Z,6.61
2022-12-23T17:51:13.814Z,6.60
2022-12-23T17:53:41.359Z,6.55
2022-12-23T17:56:15.584Z,6.52
2022-12-23T17:58:42.971Z,6.51
2022-12-23T18:01:16.493Z,6.51
2022-12-23T18:03:43.359Z,6.54
2022-12-23T18:06:14.345Z,6.52
2022-12-23T18:08:41.304Z,6.40
2022-12-23T18:11:09.009Z,6.32
2022-12-23T18:13:36.366Z,6.38
2022-12-23T18:16:03.702Z,6.37
2022-12-23T18:18:40.407Z,6.42
2022-12-23T18:21:14.200Z,6.40
2022-12-23T18:23:41.144Z,6.35
2022-12-23T18:26:10.823Z,6.42
2022-12-23T18:28:38.185Z,6.35
2022-12-23T18:31:05.175Z,6.40
2022-12-23T18:33:32.399Z,6.43
2022-12-23T18:35:59.255Z,6.49
2022-12-23T18:38:26.065Z,6.49
2022-12-23T18:40:54.699Z,6.60
2022-12-23T18:43:23.031Z,6.56
2022-12-23T18:45:53.186Z,6.59
2022-12-23T18:48:21.784Z,6.62
2022-12-23T18:50:48.807Z,6.60
2022-12-23T18:53:25.576Z,6.61
2022-12-23T18:55:53.346Z,6.62
2022-12-23T18:58:20.277Z,6.68
2022-12-23T19:00:47.929Z,6.70
2022-12-23T19:03:25.545Z,6.69
2022-12-23T19:05:53.049Z,6.76
2022-12-23T19:08:26.244Z,6.74
2022-12-23T19:10:54.203Z,6.69
2022-12-23T19:13:21.191Z,6.72
2022-12-23T19:15:48.142Z,6.74
2022-12-23T19:18:16.097Z,6.75
2022-12-23T19:20:43.433Z,6.77
2022-12-23T19:23:10.552Z,6.74
2022-12-23T19:25:40.291Z,6.64
2022-12-23T19:28:07.160Z,6.65
2022-12-23T19:30:34.588Z,6.60
2022-12-23T19:33:01.458Z,6.58
2022-12-23T19:35:28.342Z,6.54
2022-12-23T19:37:55.163Z,6.51
2022-12-23T19:40:22.010Z,6.49
2022-12-23T19:42:48.843Z,6.46
2022-12-23T19:45:17.412Z,6.42
2022-12-23T19:47:44.232Z,6.40
2022-12-23T19:50:11.475Z,6.37
2022-12-23T19:52:38.247Z,6.33
2022-12-23T19:55:05.610Z,6.34
2022-12-23T19:57:33.327Z,6.32
2022-12-23T20:00:01.799Z,6.32
2022-12-23T20:02:28.634Z,6.30
2022-12-23T20:04:55.511Z,6.31
2022-12-23T20:07:22.367Z,6.26
2022-12-23T20:09:49.147Z,6.29
2022-12-23T20:12:16.057Z,6.26
2022-12-23T20:14:42.886Z,6.26
2022-12-23T20:17:10.179Z,6.22
2022-12-23T20:19:45.473Z,6.16
2022-12-23T20:22:13.579Z,6.16
2022-12-23T20:24:40.656Z,6.18
2022-12-23T20:27:11.358Z,6.20
2022-12-23T20:29:39.431Z,6.16
2022-12-23T20:32:06.300Z,6.14
2022-12-23T20:34:38.654Z,6.17
2022-12-23T20:37:06.519Z,6.15
2022-12-23T20:39:33.306Z,6.12
2022-12-23T20:42:00.149Z,6.11
2022-12-23T20:44:36.147Z,6.11
2022-12-23T20:47:06.376Z,6.12
2022-12-23T20:49:33.765Z,6.09
2022-12-23T20:52:01.181Z,6.08
2022-12-23T20:54:33.348Z,6.04
2022-12-23T20:57:01.487Z,6.10
2022-12-23T20:59:28.483Z,6.06
2022-12-23T21:01:55.537Z,6.06
2022-12-23T21:04:22.810Z,6.04
2022-12-23T21:06:50.763Z,6.00
2022-12-23T21:09:20.853Z,6.00
2022-12-23T21:11:48.071Z,5.99
2022-12-23T21:14:15.214Z,5.99
2022-12-23T21:16:42.801Z,5.95
2022-12-23T21:19:13.990Z,5.93
2022-12-23T21:21:40.877Z,5.98
2022-12-23T21:24:07.948Z,5.97
2022-12-23T21:26:38.073Z,5.96
2022-12-23T21:29:06.673Z,5.92
2022-12-23T21:31:34.429Z,5.93
2022-12-23T21:34:02.260Z,5.98
2022-12-23T21:36:31.117Z,5.92
2022-12-23T21:38:58.512Z,5.91
2022-12-23T21:41:27.656Z,5.94
2022-12-23T21:43:55.974Z,5.92
2022-12-23T21:46:23.837Z,5.94
2022-12-23T21:48:51.524Z,5.94
2022-12-23T21:51:20.155Z,5.98
2022-12-23T21:53:49.123Z,5.93
2022-12-23T21:56:17.299Z,5.89
2022-12-23T21:58:45.289Z,5.84
2022-12-23T22:01:13.495Z,5.86
2022-12-23T22:03:40.888Z,5.89
2022-12-23T22:06:12.981Z,5.89
2022-12-23T22:08:40.398Z,5.87
2022-12-23T22:11:08.672Z,5.85
2022-12-23T22:13:38.207Z,5.80
2022-12-23T22:16:08.815Z,5.81
2022-12-23T22:18:39.000Z,5.80
2022-12-23T22:21:07.249Z,5.83
2022-12-23T22:23:34.884Z,5.82
2022-12-23T22:26:01.826Z,5.86
2022-12-23T22:28:30.309Z,5.79
2022-12-23T22:31:08.047Z,5.75
2022-12-23T22:33:34.949Z,5.77
2022-12-23T22:36:01.763Z,5.72
2022-12-23T22:38:28.642Z,5.72
2022-12-23T22:40:55.553Z,5.80
2022-12-23T22:43:22.393Z,5.77
2022-12-23T22:45:55.878Z,5.81
2022-12-23T22:48:23.029Z,5.76
2022-12-23T22:50:49.864Z,5.76
2022-12-23T22:53:16.699Z,5.79
2022-12-23T22:55:43.528Z,5.76
2022-12-23T22:58:10.325Z,5.81
2022-12-23T23:00:37.229Z,5.76
2022-12-23T23:03:04.134Z,5.78
2022-12-23T23:05:31.076Z,5.77
2022-12-23T23:07:57.946Z,5.67
2022-12-23T23:10:24.681Z,5.69
2022-12-23T23:12:51.494Z,5.73
2022-12-23T23:15:18.677Z,5.78
2022-12-23T23:17:45.526Z,5.77
2022-12-23T23:20:12.445Z,5.79
2022-12-23T23:22:39.378Z,5.76
2022-12-23T23:25:06.430Z,5.78
2022-12-23T23:27:33.411Z,5.78
2022-12-23T23:30:00.240Z,5.78
2022-12-23T23:32:27.397Z,5.75
2022-12-23T23:34:54.236Z,5.74
2022-12-23T23:37:21.017Z,5.67
2022-12-23T23:39:47.908Z,5.70
2022-12-23T23:42:16.893Z,5.71
2022-12-23T23:44:43.778Z,5.69
2022-12-23T23:47:10.556Z,5.66
2022-12-23T23:49:37.396Z,5.58
2022-12-23T23:52:04.681Z,5.58
2022-12-23T23:54:31.501Z,5.64
2022-12-23T23:56:58.314Z,5.61
2022-12-23T23:59:25.159Z,5.61
